Historyczne dane pomiarowe

Dodano dane terminowe – wersja testowa.

Dane z okresu 1951-2019

Wersja bazy: 1.34 [2019-03-16, lista zmian], aktualizacja planowana na 2019-04-15

Dane meteo z obszaru Polski uzyskane na podstawie danych udostępnionych przez Instytut Meteorologii i Gospodarki Wodnej – Państwowy Instytut Badawczy.

 

Wybierz Datę:    

       

TemperaturaWilgotnośćZachmurzenieWiatrCiśnienieWidzialnośćZjawiska
 Data    tng td wb rh cc ccl cl cm ch dir g1 g2 mslp ppp      
1994-10-05 00:00:00 -6.5--- -7.4 -6.594wxwx2wx--- 795.5 0.0---wxw1
1994-10-05 01:00:00 -6.7--- -7.4 -6.794wxwx2wx--- 796.0----wxw1
1994-10-05 02:00:00 -6.9--- -7.8 -6.994wxwx3wx--- 796.4----wxw1
1994-10-05 03:00:00 -8.3----10.3 -8.586wxwxwxwxwx4wx--- 796.5----wxw1
1994-10-05 04:00:00 -8.6----11.2 -8.983wxwxwxwx4wx--- 796.8----wx
1994-10-05 05:00:00 -7.9----11.2 -8.478wxwxwxwxwx2wx--- 796.9----wx
1994-10-05 06:00:00 -7.8--- -9.4 -8.087wxwxwxwxwx2wx--- 797.6 0.0---wxw1
1994-10-05 07:00:00 -7.2--- -8.2 -7.293wxwxwx3wx--- 798.3----wx
1994-10-05 08:00:00 -6.9--- -8.2 -7.091wxwxwx2wx--- 799.0----wx
1994-10-05 09:00:00 -7.0--- -8.2 -7.191wxwxwx3wx--- 799.4----wxw1
1994-10-05 10:00:00 -5.0--- -6.3 -5.290wxwxwx2wx--- 799.6----wx
1994-10-05 11:00:00 -4.4--- -5.4 -4.593wxwxwx3wx--- 799.7----wx
1994-10-05 12:00:00 -3.7--- -4.1 -3.796wxwxwx2wx--- 799.9 0.0---wxw1
1994-10-05 13:00:00 -4.8--- -5.4 -4.895wxwxwx2wx--- 800.3----wx
1994-10-05 14:00:00 -4.6--- -5.7 -4.793wxwxwx2wx--- 800.6----wx
1994-10-05 15:00:00 -4.6--- -5.0 -4.696wxwxwx3wx--- 800.7----wxw1
1994-10-05 16:00:00 -5.0--- -5.7 -5.095wxwxwx2wx--- 801.1----wxw1
1994-10-05 17:00:00 -5.5--- -6.7 -5.692wxwx4wx--- 801.5----wxw1
1994-10-05 18:00:00 -5.7--- -6.7 -5.892wxwx3wx--- 801.9 0.4---wxw1
1994-10-05 19:00:00 -6.9--- -8.2 -7.091wxwx3wx--- 802.1----wx
1994-10-05 20:00:00 -7.2--- -8.6 -7.390wxwx4wx--- 802.5----wx
1994-10-05 21:00:00 -7.4--- -8.2 -7.493wxwxwx3wx--- 802.7----wxw1
1994-10-05 22:00:00 -7.7--- -8.6 -7.793wxwx2wx--- 802.7----wx
1994-10-05 23:00:00 -7.7--- -8.6 -7.793wxwxwx2wx--- 802.6----wx

 

Źródłem pochodzenia danych jest Instytut Meteorologii i Gospodarki Wodnej – Państwowy Instytut Badawczy. Dane Instytutu Meteorologii i Gospodarki Wodnej – Państwowego Instytutu Badawczego zostały przetworzone.

Dane źródłowe można odnaleźć na stronie https://dane.imgw.pl